sensor_id;sensor_type;location;lat;lon;timestamp;pressure;altitude;pressure_sealevel;temperature;humidity
60465;BME280;46314;52.392;9.758;2023-02-18T00:02:21;101203.41;;;9.01;61.29
60465;BME280;46314;52.392;9.758;2023-02-18T00:04:48;101189.84;;;8.95;61.00
60465;BME280;46314;52.392;9.758;2023-02-18T00:07:14;101187.63;;;9.02;60.96
60465;BME280;46314;52.392;9.758;2023-02-18T00:09:42;101192.31;;;9.17;61.14
60465;BME280;46314;52.392;9.758;2023-02-18T00:12:08;101183.22;;;8.80;61.80
60465;BME280;46314;52.392;9.758;2023-02-18T00:14:35;101190.97;;;8.88;61.84
60465;BME280;46314;52.392;9.758;2023-02-18T00:17:01;101181.00;;;8.77;62.20
60465;BME280;46314;52.392;9.758;2023-02-18T00:19:28;101167.16;;;8.82;62.08
60465;BME280;46314;52.392;9.758;2023-02-18T00:21:54;101177.94;;;8.58;63.00
60465;BME280;46314;52.392;9.758;2023-02-18T00:24:20;101178.22;;;8.98;61.44
60465;BME280;46314;52.392;9.758;2023-02-18T00:26:50;101178.47;;;9.22;60.99
60465;BME280;46314;52.392;9.758;2023-02-18T00:29:17;101171.81;;;9.23;61.15
60465;BME280;46314;52.392;9.758;2023-02-18T00:31:44;101171.28;;;9.26;61.34
60465;BME280;46314;52.392;9.758;2023-02-18T00:34:12;101172.16;;;8.96;62.42
60465;BME280;46314;52.392;9.758;2023-02-18T00:36:39;101179.59;;;9.10;61.56
60465;BME280;46314;52.392;9.758;2023-02-18T00:39:07;101181.81;;;8.83;62.08
60465;BME280;46314;52.392;9.758;2023-02-18T00:41:35;101179.88;;;9.09;61.86
60465;BME280;46314;52.392;9.758;2023-02-18T00:44:03;101179.88;;;9.04;61.76
60465;BME280;46314;52.392;9.758;2023-02-18T00:46:31;101182.63;;;9.04;62.16
60465;BME280;46314;52.392;9.758;2023-02-18T00:48:58;101183.19;;;9.11;61.89
60465;BME280;46314;52.392;9.758;2023-02-18T00:51:24;101182.63;;;8.99;62.16
60465;BME280;46314;52.392;9.758;2023-02-18T00:53:51;101181.00;;;8.98;62.10
60465;BME280;46314;52.392;9.758;2023-02-18T00:56:17;101182.94;;;8.97;62.69
60465;BME280;46314;52.392;9.758;2023-02-18T00:58:44;101181.81;;;8.98;62.72
60465;BME280;46314;52.392;9.758;2023-02-18T01:01:12;101187.06;;;9.10;62.53
60465;BME280;46314;52.392;9.758;2023-02-18T01:03:40;101187.63;;;9.17;62.18
60465;BME280;46314;52.392;9.758;2023-02-18T01:06:07;101177.69;;;8.70;63.58
60465;BME280;46314;52.392;9.758;2023-02-18T01:08:35;101180.44;;;9.01;62.41
60465;BME280;46314;52.392;9.758;2023-02-18T01:11:03;101182.94;;;8.87;63.14
60465;BME280;46314;52.392;9.758;2023-02-18T01:13:30;101193.94;;;9.33;61.64
60465;BME280;46314;52.392;9.758;2023-02-18T01:15:56;101192.06;;;9.23;61.85
60465;BME280;46314;52.392;9.758;2023-02-18T01:18:25;101191.78;;;9.04;62.63
60465;BME280;46314;52.392;9.758;2023-02-18T01:20:52;101189.56;;;9.01;62.29
60465;BME280;46314;52.392;9.758;2023-02-18T01:23:19;101182.09;;;9.07;63.31
60465;BME280;46314;52.392;9.758;2023-02-18T01:25:46;101176.53;;;9.22;62.23
60465;BME280;46314;52.392;9.758;2023-02-18T01:28:13;101187.88;;;9.21;62.44
60465;BME280;46314;52.392;9.758;2023-02-18T01:30:40;101184.59;;;9.03;62.82
60465;BME280;46314;52.392;9.758;2023-02-18T01:33:08;101176.81;;;9.21;62.18
60465;BME280;46314;52.392;9.758;2023-02-18T01:35:38;101179.56;;;9.36;61.80
60465;BME280;46314;52.392;9.758;2023-02-18T01:38:04;101166.53;;;9.42;61.92
60465;BME280;46314;52.392;9.758;2023-02-18T01:40:31;101167.09;;;9.34;61.91
60465;BME280;46314;52.392;9.758;2023-02-18T01:42:57;101172.41;;;8.63;63.67
60465;BME280;46314;52.392;9.758;2023-02-18T01:48:26;101155.13;;;9.59;61.47
60465;BME280;46314;52.392;9.758;2023-02-18T01:50:59;101166.88;;;9.15;62.72
60465;BME280;46314;52.392;9.758;2023-02-18T01:53:30;101173.16;;;9.41;62.00
60465;BME280;46314;52.392;9.758;2023-02-18T01:55:59;101172.63;;;9.39;61.75
60465;BME280;46314;52.392;9.758;2023-02-18T01:58:28;101163.53;;;9.23;62.87
60465;BME280;46314;52.392;9.758;2023-02-18T02:00:54;101160.75;;;9.18;63.07
60465;BME280;46314;52.392;9.758;2023-02-18T02:03:20;101152.41;;;9.38;62.29
60465;BME280;46314;52.392;9.758;2023-02-18T02:05:47;101155.81;;;9.15;63.17
60465;BME280;46314;52.392;9.758;2023-02-18T02:08:15;101141.31;;;9.43;62.21
60465;BME280;46314;52.392;9.758;2023-02-18T02:10:52;101145.00;;;9.13;63.80
60465;BME280;46314;52.392;9.758;2023-02-18T02:13:28;101141.13;;;9.09;63.83
60465;BME280;46314;52.392;9.758;2023-02-18T02:16:04;101131.44;;;9.22;63.74
60465;BME280;46314;52.392;9.758;2023-02-18T02:18:42;101127.25;;;9.24;63.62
60465;BME280;46314;52.392;9.758;2023-02-18T02:21:27;101125.78;;;9.47;63.09
60465;BME280;46314;52.392;9.758;2023-02-18T02:24:28;101130.91;;;9.15;64.05
60465;BME280;46314;52.392;9.758;2023-02-18T02:27:13;101145.78;;;9.34;63.69
60465;BME280;46314;52.392;9.758;2023-02-18T02:30:12;101149.97;;;9.16;64.00
60465;BME280;46314;52.392;9.758;2023-02-18T02:33:17;101135.03;;;9.22;64.00
60465;BME280;46314;52.392;9.758;2023-02-18T02:35:52;101133.97;;;9.03;64.65
60465;BME280;46314;52.392;9.758;2023-02-18T02:38:25;101130.59;;;9.21;64.69
60465;BME280;46314;52.392;9.758;2023-02-18T02:41:01;101130.00;;;9.29;64.15
60465;BME280;46314;52.392;9.758;2023-02-18T02:43:40;101130.56;;;9.26;64.86
60465;BME280;46314;52.392;9.758;2023-02-18T02:46:17;101127.16;;;9.55;63.85
60465;BME280;46314;52.392;9.758;2023-02-18T02:48:48;101126.72;;;9.22;64.97
60465;BME280;46314;52.392;9.758;2023-02-18T02:51:23;101126.72;;;9.22;65.31
60465;BME280;46314;52.392;9.758;2023-02-18T02:53:52;101117.59;;;9.17;65.41
60465;BME280;46314;52.392;9.758;2023-02-18T02:56:20;101117.84;;;9.25;65.93
60465;BME280;46314;52.392;9.758;2023-02-18T02:58:54;101106.63;;;9.61;64.70
60465;BME280;46314;52.392;9.758;2023-02-18T03:01:32;101108.91;;;9.49;65.17
60465;BME280;46314;52.392;9.758;2023-02-18T03:04:10;101105.56;;;9.57;64.92
60465;BME280;46314;52.392;9.758;2023-02-18T03:07:01;101110.63;;;9.29;66.37
60465;BME280;46314;52.392;9.758;2023-02-18T03:09:38;101105.09;;;9.29;66.63
60465;BME280;46314;52.392;9.758;2023-02-18T03:12:15;101108.91;;;9.49;66.08
60465;BME280;46314;52.392;9.758;2023-02-18T03:14:49;101098.44;;;9.36;67.44
60465;BME280;46314;52.392;9.758;2023-02-18T03:17:22;101093.34;;;9.58;66.83
60465;BME280;46314;52.392;9.758;2023-02-18T03:19:54;101086.41;;;9.66;67.27
60465;BME280;46314;52.392;9.758;2023-02-18T03:22:26;101085.41;;;9.46;68.40
60465;BME280;46314;52.392;9.758;2023-02-18T03:24:56;101074.47;;;9.65;68.20
60465;BME280;46314;52.392;9.758;2023-02-18T03:27:25;101070.78;;;9.85;67.88
60465;BME280;46314;52.392;9.758;2023-02-18T03:29:55;101071.03;;;9.89;68.30
60465;BME280;46314;52.392;9.758;2023-02-18T03:32:24;101059.06;;;10.38;67.07
60465;BME280;46314;52.392;9.758;2023-02-18T03:34:56;101063.56;;;9.84;68.29
60465;BME280;46314;52.392;9.758;2023-02-18T03:37:24;101071.91;;;10.24;66.94
60465;BME280;46314;52.392;9.758;2023-02-18T03:39:54;101057.31;;;10.13;67.99
60465;BME280;46314;52.392;9.758;2023-02-18T03:42:24;101056.16;;;9.75;70.51
60465;BME280;46314;52.392;9.758;2023-02-18T03:44:51;101062.63;;;10.04;69.64
60465;BME280;46314;52.392;9.758;2023-02-18T03:47:17;101060.06;;;9.69;71.18
60465;BME280;46314;52.392;9.758;2023-02-18T03:49:43;101044.50;;;9.78;71.59
60465;BME280;46314;52.392;9.758;2023-02-18T03:52:10;101046.66;;;9.86;71.60
60465;BME280;46314;52.392;9.758;2023-02-18T03:54:38;101048.94;;;10.18;70.55
60465;BME280;46314;52.392;9.758;2023-02-18T03:57:04;101038.75;;;10.09;71.29
60465;BME280;46314;52.392;9.758;2023-02-18T03:59:30;101037.13;;;10.02;72.02
60465;BME280;46314;52.392;9.758;2023-02-18T04:01:57;101034.81;;;10.15;72.12
60465;BME280;46314;52.392;9.758;2023-02-18T04:04:23;101046.31;;;9.98;73.17
60465;BME280;46314;52.392;9.758;2023-02-18T04:06:50;101045.31;;;9.83;73.46
60465;BME280;46314;52.392;9.758;2023-02-18T04:09:16;101048.09;;;9.83;75.01
60465;BME280;46314;52.392;9.758;2023-02-18T04:11:44;101033.63;;;9.86;74.64
60465;BME280;46314;52.392;9.758;2023-02-18T04:14:12;101043.25;;;9.99;74.56
60465;BME280;46314;52.392;9.758;2023-02-18T04:16:39;101036.13;;;9.88;74.64
60465;BME280;46314;52.392;9.758;2023-02-18T04:19:06;101033.34;;;9.88;76.03
60465;BME280;46314;52.392;9.758;2023-02-18T04:21:33;101032.53;;;9.88;75.83
60465;BME280;46314;52.392;9.758;2023-02-18T04:24:00;101034.16;;;9.94;77.17
60465;BME280;46314;52.392;9.758;2023-02-18T04:26:26;101026.03;;;10.02;76.74
60465;BME280;46314;52.392;9.758;2023-02-18T04:28:54;101032.50;;;9.93;78.91
60465;BME280;46314;52.392;9.758;2023-02-18T04:31:20;101027.19;;;9.96;77.92
60465;BME280;46314;52.392;9.758;2023-02-18T04:33:47;101035.41;;;9.17;82.15
60465;BME280;46314;52.392;9.758;2023-02-18T04:36:13;101030.59;;;9.83;81.42
60465;BME280;46314;52.392;9.758;2023-02-18T04:38:40;101024.06;;;9.69;82.43
60465;BME280;46314;52.392;9.758;2023-02-18T04:41:06;101015.63;;;10.23;79.11
60465;BME280;46314;52.392;9.758;2023-02-18T04:43:33;101020.28;;;10.33;78.81
60465;BME280;46314;52.392;9.758;2023-02-18T04:46:00;101019.00;;;9.81;82.01
60465;BME280;46314;52.392;9.758;2023-02-18T04:48:27;101006.47;;;9.94;81.90
60465;BME280;46314;52.392;9.758;2023-02-18T04:50:53;101009.38;;;9.68;86.48
60465;BME280;46314;52.392;9.758;2023-02-18T04:53:20;100996.75;;;8.86;100.00
60465;BME280;46314;52.392;9.758;2023-02-18T04:55:49;100988.25;;;9.38;100.00
60465;BME280;46314;52.392;9.758;2023-02-18T04:58:15;100992.78;;;10.02;91.58
60465;BME280;46314;52.392;9.758;2023-02-18T05:00:42;100980.53;;;9.74;91.19
60465;BME280;46314;52.392;9.758;2023-02-18T05:03:09;100977.19;;;10.12;88.86
60465;BME280;46314;52.392;9.758;2023-02-18T05:05:36;100985.75;;;9.81;89.89
60465;BME280;46314;52.392;9.758;2023-02-18T05:08:03;100987.75;;;10.10;86.93
60465;BME280;46314;52.392;9.758;2023-02-18T05:10:29;100978.75;;;9.94;88.29
60465;BME280;46314;52.392;9.758;2023-02-18T05:12:56;100991.13;;;10.36;85.44
60465;BME280;46314;52.392;9.758;2023-02-18T05:15:22;100970.41;;;9.59;88.93
60465;BME280;46314;52.392;9.758;2023-02-18T05:17:48;100973.09;;;9.70;91.06
60465;BME280;46314;52.392;9.758;2023-02-18T05:20:16;100967.44;;;9.85;93.18
60465;BME280;46314;52.392;9.758;2023-02-18T05:22:43;100971.44;;;8.53;100.00
60465;BME280;46314;52.392;9.758;2023-02-18T05:25:09;100969.47;;;9.69;100.00
60465;BME280;46314;52.392;9.758;2023-02-18T05:27:36;100958.88;;;9.42;100.00
60465;BME280;46314;52.392;9.758;2023-02-18T05:30:02;100946.03;;;9.12;100.00
60465;BME280;46314;52.392;9.758;2023-02-18T05:32:29;100950.22;;;9.54;100.00
60465;BME280;46314;52.392;9.758;2023-02-18T05:34:56;100947.88;;;9.26;100.00
60465;BME280;46314;52.392;9.758;2023-02-18T05:37:24;100938.03;;;9.05;100.00
60465;BME280;46314;52.392;9.758;2023-02-18T05:39:50;100924.00;;;8.91;100.00
60465;BME280;46314;52.392;9.758;2023-02-18T05:42:16;100920.91;;;9.47;100.00
60465;BME280;46314;52.392;9.758;2023-02-18T05:44:43;100918.56;;;9.25;100.00
60465;BME280;46314;52.392;9.758;2023-02-18T05:47:11;100909.50;;;9.54;100.00
60465;BME280;46314;52.392;9.758;2023-02-18T05:49:39;100906.09;;;9.68;100.00
60465;BME280;46314;52.392;9.758;2023-02-18T05:52:06;100905.44;;;8.97;100.00
60465;BME280;46314;52.392;9.758;2023-02-18T05:54:35;100903.53;;;9.37;100.00
60465;BME280;46314;52.392;9.758;2023-02-18T05:57:02;100903.63;;;9.95;95.67
60465;BME280;46314;52.392;9.758;2023-02-18T05:59:29;100902.06;;;9.84;95.68
60465;BME280;46314;52.392;9.758;2023-02-18T06:01:56;100902.47;;;10.01;94.49
60465;BME280;46314;52.392;9.758;2023-02-18T06:04:22;100895.06;;;9.62;95.16
60465;BME280;46314;52.392;9.758;2023-02-18T06:06:49;100884.72;;;9.73;94.67
60465;BME280;46314;52.392;9.758;2023-02-18T06:09:15;100884.00;;;9.57;96.92
60465;BME280;46314;52.392;9.758;2023-02-18T06:11:43;100878.34;;;9.73;94.41
60465;BME280;46314;52.392;9.758;2023-02-18T06:14:09;100869.03;;;9.24;96.57
60465;BME280;46314;52.392;9.758;2023-02-18T06:16:36;100862.41;;;9.59;98.18
60465;BME280;46314;52.392;9.758;2023-02-18T06:19:02;100849.34;;;9.31;100.00
60465;BME280;46314;52.392;9.758;2023-02-18T06:21:29;100853.78;;;9.90;95.52
60465;BME280;46314;52.392;9.758;2023-02-18T06:23:55;100847.44;;;9.60;95.84
60465;BME280;46314;52.392;9.758;2023-02-18T06:26:22;100833.06;;;10.12;94.00
60465;BME280;46314;52.392;9.758;2023-02-18T06:28:49;100834.13;;;9.28;97.31
60465;BME280;46314;52.392;9.758;2023-02-18T06:31:16;100812.47;;;9.70;97.57
60465;BME280;46314;52.392;9.758;2023-02-18T06:33:42;100812.34;;;9.51;98.79
60465;BME280;46314;52.392;9.758;2023-02-18T06:36:10;100798.50;;;9.51;100.00
60465;BME280;46314;52.392;9.758;2023-02-18T06:38:38;100800.25;;;9.71;99.19
60465;BME280;46314;52.392;9.758;2023-02-18T06:41:06;100792.56;;;9.33;100.00
60465;BME280;46314;52.392;9.758;2023-02-18T06:43:33;100794.75;;;10.19;98.12
60465;BME280;46314;52.392;9.758;2023-02-18T06:46:01;100791.41;;;9.69;99.80
60465;BME280;46314;52.392;9.758;2023-02-18T06:48:27;100782.78;;;9.99;99.62
60465;BME280;46314;52.392;9.758;2023-02-18T06:50:55;100786.50;;;10.38;97.34
60465;BME280;46314;52.392;9.758;2023-02-18T06:53:21;100774.16;;;10.68;95.87
60465;BME280;46314;52.392;9.758;2023-02-18T06:55:48;100763.44;;;9.94;99.08
60465;BME280;46314;52.392;9.758;2023-02-18T06:58:14;100769.91;;;10.09;99.95
60465;BME280;46314;52.392;9.758;2023-02-18T07:00:41;100770.31;;;10.21;100.00
60465;BME280;46314;52.392;9.758;2023-02-18T07:03:10;100753.91;;;10.49;98.05
60465;BME280;46314;52.392;9.758;2023-02-18T07:05:37;100751.72;;;10.46;99.49
60465;BME280;46314;52.392;9.758;2023-02-18T07:08:04;100745.22;;;10.74;96.47
60465;BME280;46314;52.392;9.758;2023-02-18T07:10:30;100751.09;;;10.05;100.00
60465;BME280;46314;52.392;9.758;2023-02-18T07:12:57;100742.44;;;10.36;100.00
60465;BME280;46314;52.392;9.758;2023-02-18T07:15:23;100732.78;;;10.53;99.60
60465;BME280;46314;52.392;9.758;2023-02-18T07:17:50;100725.88;;;10.50;97.66
60465;BME280;46314;52.392;9.758;2023-02-18T07:20:18;100724.53;;;10.67;98.55
60465;BME280;46314;52.392;9.758;2023-02-18T07:22:46;100729.31;;;10.42;99.56
60465;BME280;46314;52.392;9.758;2023-02-18T07:25:12;100724.44;;;10.72;97.21
60465;BME280;46314;52.392;9.758;2023-02-18T07:27:39;100717.53;;;10.88;96.42
60465;BME280;46314;52.392;9.758;2023-02-18T07:30:07;100701.88;;;10.40;100.00
60465;BME280;46314;52.392;9.758;2023-02-18T07:32:34;100687.81;;;9.70;100.00
60465;BME280;46314;52.392;9.758;2023-02-18T07:35:00;100681.69;;;9.73;100.00
60465;BME280;46314;52.392;9.758;2023-02-18T07:37:28;100687.16;;;9.54;100.00
60465;BME280;46314;52.392;9.758;2023-02-18T07:39:54;100684.38;;;9.78;100.00
60465;BME280;46314;52.392;9.758;2023-02-18T07:42:20;100672.28;;;9.44;100.00
60465;BME280;46314;52.392;9.758;2023-02-18T07:44:47;100676.44;;;10.14;100.00
60465;BME280;46314;52.392;9.758;2023-02-18T07:47:15;100661.50;;;9.48;100.00
60465;BME280;46314;52.392;9.758;2023-02-18T07:49:42;100671.88;;;10.04;100.00
60465;BME280;46314;52.392;9.758;2023-02-18T07:52:08;100664.16;;;10.01;100.00
60465;BME280;46314;52.392;9.758;2023-02-18T07:54:36;100661.44;;;9.96;100.00
60465;BME280;46314;52.392;9.758;2023-02-18T07:57:03;100653.41;;;10.38;100.00
60465;BME280;46314;52.392;9.758;2023-02-18T07:59:29;100654.97;;;10.44;100.00
60465;BME280;46314;52.392;9.758;2023-02-18T08:01:56;100648.38;;;10.40;100.00
60465;BME280;46314;52.392;9.758;2023-02-18T08:04:22;100644.44;;;9.84;100.00
60465;BME280;46314;52.392;9.758;2023-02-18T08:06:49;100644.06;;;10.29;100.00
60465;BME280;46314;52.392;9.758;2023-02-18T08:09:16;100641.53;;;10.70;100.00
60465;BME280;46314;52.392;9.758;2023-02-18T08:11:44;100639.69;;;10.79;100.00
60465;BME280;46314;52.392;9.758;2023-02-18T08:14:11;100637.47;;;10.95;100.00
60465;BME280;46314;52.392;9.758;2023-02-18T08:16:37;100630.50;;;10.65;100.00
60465;BME280;46314;52.392;9.758;2023-02-18T08:19:04;100632.56;;;10.92;100.00
60465;BME280;46314;52.392;9.758;2023-02-18T08:21:30;100630.13;;;11.32;100.00
60465;BME280;46314;52.392;9.758;2023-02-18T08:23:58;100625.34;;;10.91;100.00
60465;BME280;46314;52.392;9.758;2023-02-18T08:26:25;100619.84;;;11.19;100.00
60465;BME280;46314;52.392;9.758;2023-02-18T08:28:53;100620.53;;;10.97;100.00
60465;BME280;46314;52.392;9.758;2023-02-18T08:31:21;100612.03;;;11.21;100.00
60465;BME280;46314;52.392;9.758;2023-02-18T08:33:48;100610.41;;;10.73;100.00
60465;BME280;46314;52.392;9.758;2023-02-18T08:36:15;100616.13;;;10.96;100.00
60465;BME280;46314;52.392;9.758;2023-02-18T08:38:41;100593.91;;;10.96;100.00
60465;BME280;46314;52.392;9.758;2023-02-18T08:41:08;100604.72;;;11.11;100.00
60465;BME280;46314;52.392;9.758;2023-02-18T08:43:35;100595.13;;;10.90;100.00
60465;BME280;46314;52.392;9.758;2023-02-18T08:46:03;100593.31;;;11.13;100.00
60465;BME280;46314;52.392;9.758;2023-02-18T08:48:30;100588.28;;;11.01;100.00
60465;BME280;46314;52.392;9.758;2023-02-18T08:50:57;100581.25;;;10.90;100.00
60465;BME280;46314;52.392;9.758;2023-02-18T08:53:23;100577.88;;;10.93;100.00
60465;BME280;46314;52.392;9.758;2023-02-18T08:55:50;100582.59;;;11.06;100.00
60465;BME280;46314;52.392;9.758;2023-02-18T08:58:17;100583.69;;;11.38;100.00
60465;BME280;46314;52.392;9.758;2023-02-18T09:00:45;100576.66;;;11.54;100.00
60465;BME280;46314;52.392;9.758;2023-02-18T09:03:13;100585.41;;;11.62;100.00
60465;BME280;46314;52.392;9.758;2023-02-18T09:05:40;100588.28;;;11.70;100.00
60465;BME280;46314;52.392;9.758;2023-02-18T09:08:07;100570.28;;;11.40;100.00
60465;BME280;46314;52.392;9.758;2023-02-18T09:10:33;100581.81;;;11.33;100.00
60465;BME280;46314;52.392;9.758;2023-02-18T09:13:00;100567.63;;;11.35;100.00
60465;BME280;46314;52.392;9.758;2023-02-18T09:15:26;100570.50;;;11.30;100.00
60465;BME280;46314;52.392;9.758;2023-02-18T09:17:52;100549.31;;;11.20;100.00
60465;BME280;46314;52.392;9.758;2023-02-18T09:20:20;100553.34;;;11.78;100.00
60465;BME280;46314;52.392;9.758;2023-02-18T09:22:47;100553.44;;;12.01;100.00
60465;BME280;46314;52.392;9.758;2023-02-18T09:25:13;100540.19;;;12.20;99.81
60465;BME280;46314;52.392;9.758;2023-02-18T09:27:39;100560.16;;;12.00;99.34
60465;BME280;46314;52.392;9.758;2023-02-18T09:30:07;100548.56;;;12.06;99.95
60465;BME280;46314;52.392;9.758;2023-02-18T09:32:33;100556.63;;;11.94;100.00
60465;BME280;46314;52.392;9.758;2023-02-18T09:35:01;100546.75;;;11.88;100.00
60465;BME280;46314;52.392;9.758;2023-02-18T09:37:29;100550.34;;;12.02;100.00
60465;BME280;46314;52.392;9.758;2023-02-18T09:39:55;100548.28;;;11.94;99.81
60465;BME280;46314;52.392;9.758;2023-02-18T09:42:27;100538.25;;;12.21;98.67
60465;BME280;46314;52.392;9.758;2023-02-18T09:44:58;100536.81;;;12.09;98.34
60465;BME280;46314;52.392;9.758;2023-02-18T09:47:30;100542.88;;;11.75;100.00
60465;BME280;46314;52.392;9.758;2023-02-18T09:50:05;100540.63;;;11.77;100.00
60465;BME280;46314;52.392;9.758;2023-02-18T09:52:35;100549.34;;;11.98;99.47
60465;BME280;46314;52.392;9.758;2023-02-18T09:55:14;100537.00;;;12.13;98.69
60465;BME280;46314;52.392;9.758;2023-02-18T09:57:45;100540.63;;;11.77;99.81
60465;BME280;46314;52.392;9.758;2023-02-18T10:00:14;100546.72;;;11.51;100.00
60465;BME280;46314;52.392;9.758;2023-02-18T10:02:51;100533.78;;;11.47;100.00
60465;BME280;46314;52.392;9.758;2023-02-18T10:05:19;100522.72;;;11.55;100.00
60465;BME280;46314;52.392;9.758;2023-02-18T10:07:49;100516.66;;;11.67;100.00
60465;BME280;46314;52.392;9.758;2023-02-18T10:10:20;100524.56;;;11.74;100.00
60465;BME280;46314;52.392;9.758;2023-02-18T10:12:49;100527.59;;;12.00;98.45
60465;BME280;46314;52.392;9.758;2023-02-18T10:15:21;100520.72;;;11.47;100.00
60465;BME280;46314;52.392;9.758;2023-02-18T10:17:49;100520.50;;;11.58;100.00
60465;BME280;46314;52.392;9.758;2023-02-18T10:20:19;100550.56;;;11.78;100.00
60465;BME280;46314;52.392;9.758;2023-02-18T10:22:49;100536.19;;;11.76;100.00
60465;BME280;46314;52.392;9.758;2023-02-18T10:25:20;100533.78;;;11.83;100.00
60465;BME280;46314;52.392;9.758;2023-02-18T10:27:50;100532.78;;;11.79;100.00
60465;BME280;46314;52.392;9.758;2023-02-18T10:30:21;100523.44;;;11.75;100.00
60465;BME280;46314;52.392;9.758;2023-02-18T10:32:53;100530.63;;;11.76;100.00
60465;BME280;46314;52.392;9.758;2023-02-18T10:35:24;100533.28;;;11.17;100.00
60465;BME280;46314;52.392;9.758;2023-02-18T10:38:03;100535.09;;;11.63;100.00
60465;BME280;46314;52.392;9.758;2023-02-18T10:40:43;100536.88;;;11.31;100.00
60465;BME280;46314;52.392;9.758;2023-02-18T10:43:20;100532.44;;;11.44;100.00
60465;BME280;46314;52.392;9.758;2023-02-18T10:45:55;100527.66;;;11.59;100.00
60465;BME280;46314;52.392;9.758;2023-02-18T10:48:50;100535.59;;;11.65;100.00
60465;BME280;46314;52.392;9.758;2023-02-18T10:51:25;100528.53;;;11.96;100.00
60465;BME280;46314;52.392;9.758;2023-02-18T10:53:55;100511.84;;;11.96;100.00
60465;BME280;46314;52.392;9.758;2023-02-18T10:56:33;100505.16;;;11.46;100.00
60465;BME280;46314;52.392;9.758;2023-02-18T10:59:08;100515.72;;;11.72;100.00
60465;BME280;46314;52.392;9.758;2023-02-18T11:01:35;100522.03;;;12.00;100.00
60465;BME280;46314;52.392;9.758;2023-02-18T11:04:10;100506.94;;;11.92;100.00
60465;BME280;46314;52.392;9.758;2023-02-18T11:06:39;100508.13;;;11.64;100.00
60465;BME280;46314;52.392;9.758;2023-02-18T11:09:24;100502.28;;;12.02;98.70
60465;BME280;46314;52.392;9.758;2023-02-18T11:11:58;100505.75;;;12.07;96.19
60465;BME280;46314;52.392;9.758;2023-02-18T11:14:39;100496.84;;;11.97;98.45
60465;BME280;46314;52.392;9.758;2023-02-18T11:17:16;100507.25;;;12.13;98.45
60465;BME280;46314;52.392;9.758;2023-02-18T11:19:51;100505.38;;;11.50;100.00
60465;BME280;46314;52.392;9.758;2023-02-18T11:22:22;100501.19;;;11.39;100.00
60465;BME280;46314;52.392;9.758;2023-02-18T11:24:55;100498.41;;;11.11;100.00
60465;BME280;46314;52.392;9.758;2023-02-18T11:27:25;100512.41;;;11.20;100.00
60465;BME280;46314;52.392;9.758;2023-02-18T11:29:56;100519.91;;;11.05;100.00
60465;BME280;46314;52.392;9.758;2023-02-18T11:32:26;100519.72;;;11.29;100.00
60465;BME280;46314;52.392;9.758;2023-02-18T11:34:54;100507.31;;;11.49;100.00
60465;BME280;46314;52.392;9.758;2023-02-18T11:37:21;100505.19;;;11.18;100.00
60465;BME280;46314;52.392;9.758;2023-02-18T11:39:49;100506.50;;;11.63;100.00
60465;BME280;46314;52.392;9.758;2023-02-18T11:42:20;100511.47;;;11.74;100.00
60465;BME280;46314;52.392;9.758;2023-02-18T11:44:50;100501.84;;;11.58;100.00
60465;BME280;46314;52.392;9.758;2023-02-18T11:47:26;100520.31;;;11.40;100.00
60465;BME280;46314;52.392;9.758;2023-02-18T11:50:15;100508.19;;;11.08;100.00
60465;BME280;46314;52.392;9.758;2023-02-18T11:52:42;100516.19;;;11.24;100.00
60465;BME280;46314;52.392;9.758;2023-02-18T11:55:14;100506.50;;;11.49;100.00
60465;BME280;46314;52.392;9.758;2023-02-18T11:57:45;100514.09;;;11.43;100.00
60465;BME280;46314;52.392;9.758;2023-02-18T12:00:19;100498.09;;;11.26;100.00
60465;BME280;46314;52.392;9.758;2023-02-18T12:02:46;100504.78;;;10.97;100.00
60465;BME280;46314;52.392;9.758;2023-02-18T12:05:15;100494.63;;;11.21;100.00
60465;BME280;46314;52.392;9.758;2023-02-18T12:07:45;100490.09;;;11.11;100.00
60465;BME280;46314;52.392;9.758;2023-02-18T12:10:17;100491.75;;;10.98;100.00
60465;BME280;46314;52.392;9.758;2023-02-18T12:12:48;100489.88;;;11.07;100.00
60465;BME280;46314;52.392;9.758;2023-02-18T12:15:19;100498.13;;;11.12;100.00
60465;BME280;46314;52.392;9.758;2023-02-18T12:17:58;100498.13;;;10.98;100.00
60465;BME280;46314;52.392;9.758;2023-02-18T12:20:44;100496.16;;;10.85;100.00
60465;BME280;46314;52.392;9.758;2023-02-18T12:23:25;100491.94;;;11.15;100.00
60465;BME280;46314;52.392;9.758;2023-02-18T12:26:06;100499.34;;;11.06;100.00
60465;BME280;46314;52.392;9.758;2023-02-18T12:28:52;100509.63;;;11.06;100.00
60465;BME280;46314;52.392;9.758;2023-02-18T12:31:35;100517.84;;;10.97;100.00
60465;BME280;46314;52.392;9.758;2023-02-18T12:34:18;100526.13;;;10.55;100.00
60465;BME280;46314;52.392;9.758;2023-02-18T12:36:57;100513.81;;;10.61;100.00
60465;BME280;46314;52.392;9.758;2023-02-18T12:39:40;100516.38;;;10.58;100.00
60465;BME280;46314;52.392;9.758;2023-02-18T12:42:22;100512.25;;;10.69;100.00
60465;BME280;46314;52.392;9.758;2023-02-18T12:45:17;100514.06;;;10.93;100.00
60465;BME280;46314;52.392;9.758;2023-02-18T12:48:04;100511.25;;;10.65;100.00
60465;BME280;46314;52.392;9.758;2023-02-18T12:50:44;100510.88;;;10.99;100.00
60465;BME280;46314;52.392;9.758;2023-02-18T12:53:25;100531.81;;;10.92;100.00
60465;BME280;46314;52.392;9.758;2023-02-18T12:56:07;100521.22;;;10.66;100.00
60465;BME280;46314;52.392;9.758;2023-02-18T12:58:45;100527.97;;;10.60;100.00
60465;BME280;46314;52.392;9.758;2023-02-18T13:01:27;100530.06;;;10.68;100.00
60465;BME280;46314;52.392;9.758;2023-02-18T13:04:14;100527.91;;;10.79;100.00
60465;BME280;46314;52.392;9.758;2023-02-18T13:10:11;100527.78;;;10.70;100.00
60465;BME280;46314;52.392;9.758;2023-02-18T13:12:50;100517.13;;;10.77;100.00